Time;durP1;ratioP1;P1;durP2;ratioP2;P2;SDS_P1;SDS_P2;PMS_P1;PMS_P2;Temp;Humidity;BMP_temperature;BMP_pressure;BME280_temperature;BME280_humidity;BME280_pressure;Samples;Min_cycle;Max_cycle;Signal;HPM_P1;HPM_P2
2023/03/25 00:01:15;;;;;;;7.70;5.17;;;9.10;99.90;;;;;;4941043;29;20234;-62
2023/03/25 00:03:49;;;;;;;7.23;5.10;;;9.10;99.90;;;;;;4941063;29;20712;-62
2023/03/25 00:06:17;;;;;;;8.77;4.90;;;9.20;99.90;;;;;;4941914;29;20243;-61
2023/03/25 00:08:45;;;;;;;8.03;5.43;;;9.20;99.90;;;;;;4941813;29;20244;-62
2023/03/25 00:11:15;;;;;;;6.87;4.93;;;9.30;99.90;;;;;;4941548;29;20261;-62
2023/03/25 00:13:43;;;;;;;10.50;5.10;;;9.30;99.90;;;;;;4933020;29;20239;-62
2023/03/25 00:16:11;;;;;;;8.60;5.20;;;9.30;99.90;;;;;;4941577;29;20221;-62
2023/03/25 00:18:39;;;;;;;7.13;4.80;;;9.30;99.90;;;;;;4941481;29;20712;-62
2023/03/25 00:21:09;;;;;;;8.30;5.07;;;9.30;99.90;;;;;;4940829;29;20239;-62
2023/03/25 00:23:38;;;;;;;5.37;4.40;;;9.30;99.90;;;;;;4939791;29;20232;-62
2023/03/25 00:26:07;;;;;;;7.57;4.93;;;9.30;99.90;;;;;;4937893;29;20229;-62
2023/03/25 00:28:38;;;;;;;6.10;4.60;;;9.30;99.90;;;;;;4926356;29;20692;-62
2023/03/25 00:31:08;;;;;;;8.57;4.70;;;9.30;99.90;;;;;;4932243;29;20238;-62
2023/03/25 00:33:36;;;;;;;7.80;4.57;;;9.30;99.90;;;;;;4940895;29;20292;-62
2023/03/25 00:36:05;;;;;;;7.47;5.40;;;9.30;99.90;;;;;;4940349;29;20696;-62
2023/03/25 00:38:36;;;;;;;8.63;4.63;;;9.30;99.90;;;;;;4940292;29;20271;-62
2023/03/25 00:41:12;;;;;;;8.10;4.53;;;9.30;99.90;;;;;;4938992;29;20238;-62
2023/03/25 00:43:42;;;;;;;7.50;4.73;;;9.30;99.90;;;;;;4931222;29;20236;-62
2023/03/25 00:46:10;;;;;;;7.20;4.30;;;9.30;99.90;;;;;;4939918;29;20221;-61
2023/03/25 00:48:38;;;;;;;7.33;4.10;;;9.30;99.90;;;;;;4939778;29;20240;-62
2023/03/25 00:51:08;;;;;;;6.87;4.33;;;9.30;99.90;;;;;;4938613;29;20259;-62
2023/03/25 00:53:37;;;;;;;9.13;4.47;;;9.30;99.90;;;;;;4946329;29;20323;-62
2023/03/25 00:56:07;;;;;;;7.07;4.23;;;9.40;99.90;;;;;;4939540;29;20228;-62
2023/03/25 00:58:35;;;;;;;5.57;4.23;;;9.40;99.90;;;;;;4939820;29;20226;-62
2023/03/25 01:01:11;;;;;;;6.73;4.20;;;9.40;99.90;;;;;;4931993;29;20232;-62
2023/03/25 01:03:42;;;;;;;8.00;4.90;;;9.40;99.90;;;;;;4939514;29;20295;-62
2023/03/25 01:06:12;;;;;;;9.10;4.20;;;9.40;99.90;;;;;;4940073;29;20692;-61
2023/03/25 01:08:42;;;;;;;8.40;4.60;;;9.40;99.90;;;;;;4940982;29;20328;-62
2023/03/25 01:11:18;;;;;;;8.30;4.33;;;9.40;99.90;;;;;;4938937;29;20324;-62
2023/03/25 01:13:50;;;;;;;8.13;4.47;;;9.40;99.90;;;;;;4930557;29;20234;-62
2023/03/25 01:16:19;;;;;;;7.53;4.40;;;9.40;99.90;;;;;;4938740;29;20232;-62
2023/03/25 01:18:47;;;;;;;11.43;4.93;;;9.40;99.90;;;;;;4938420;29;20540;-61
2023/03/25 01:21:16;;;;;;;8.80;4.57;;;9.50;99.90;;;;;;4933524;29;20222;-62
2023/03/25 01:23:44;;;;;;;7.63;4.63;;;9.40;99.90;;;;;;4931815;29;20228;-62
2023/03/25 01:26:13;;;;;;;6.53;4.50;;;9.40;99.90;;;;;;4940282;29;20239;-61
2023/03/25 01:28:41;;;;;;;7.93;4.90;;;9.50;99.90;;;;;;4933383;29;20232;-61
2023/03/25 01:31:12;;;;;;;6.73;4.10;;;9.50;99.90;;;;;;4939341;29;20639;-62
2023/03/25 01:33:41;;;;;;;7.30;4.80;;;9.50;99.90;;;;;;4939621;29;20289;-62
2023/03/25 01:36:11;;;;;;;7.20;4.23;;;9.50;99.90;;;;;;4940066;29;20688;-61
2023/03/25 01:38:40;;;;;;;9.80;4.40;;;9.50;99.90;;;;;;4939512;29;20237;-61
2023/03/25 01:41:09;;;;;;;5.03;3.73;;;9.50;99.90;;;;;;4939141;29;20312;-62
2023/03/25 01:43:37;;;;;;;7.97;3.97;;;9.50;99.90;;;;;;4930348;29;20241;-61
2023/03/25 01:46:06;;;;;;;6.47;4.20;;;9.50;99.90;;;;;;4939750;29;20226;-62
2023/03/25 01:48:36;;;;;;;7.87;4.30;;;9.50;99.90;;;;;;4939352;29;20226;-61
2023/03/25 01:51:12;;;;;;;7.03;4.40;;;9.50;99.90;;;;;;4936919;29;20233;-62
2023/03/25 01:53:41;;;;;;;7.70;4.33;;;9.50;99.90;;;;;;4931494;29;20268;-62
2023/03/25 01:56:15;;;;;;;5.50;3.67;;;9.50;99.90;;;;;;4939611;29;20234;-62
2023/03/25 01:58:44;;;;;;;6.80;4.20;;;9.50;99.90;;;;;;4936943;29;20359;-62
2023/03/25 02:01:17;;;;;;;7.37;3.90;;;9.50;99.90;;;;;;4938826;29;20240;-62
2023/03/25 02:03:49;;;;;;;6.37;3.50;;;9.40;99.90;;;;;;4966534;23;20279;-56
2023/03/25 02:06:27;;;;;;;7.30;3.83;;;9.40;99.90;;;;;;4922292;29;20238;-57
2023/03/25 02:08:57;;;;;;;9.40;4.30;;;9.50;99.90;;;;;;4917779;29;20757;-56
2023/03/25 02:11:28;;;;;;;7.30;3.97;;;9.50;99.90;;;;;;4928865;29;20723;-57
2023/03/25 02:13:59;;;;;;;7.53;3.60;;;9.50;99.90;;;;;;4928624;29;20231;-57
2023/03/25 02:16:32;;;;;;;6.67;3.40;;;9.50;99.90;;;;;;4936449;29;20596;-57
2023/03/25 02:19:31;;;;;;;8.90;4.00;;;9.50;99.90;;;;;;4928515;29;20229;-56
2023/03/25 02:22:36;;;;;;;6.87;3.57;;;9.60;99.90;;;;;;4930371;29;20700;-56
2023/03/25 02:25:46;;;;;;;5.47;3.00;;;9.60;99.90;;;;;;4917373;29;20312;-56
2023/03/25 02:28:28;;;;;;;7.80;3.37;;;9.60;99.90;;;;;;4920494;29;20251;-57
2023/03/25 02:31:27;;;;;;;8.03;3.40;;;9.60;99.90;;;;;;4927927;29;20234;-57
2023/03/25 02:34:34;;;;;;;11.17;3.97;;;9.60;99.90;;;;;;4931602;29;20230;-57
2023/03/25 02:37:47;;;;;;;6.40;3.33;;;9.60;99.90;;;;;;4893264;29;20251;-56
2023/03/25 02:40:25;;;;;;;7.03;3.47;;;9.60;99.90;;;;;;4916498;29;20255;-57
2023/03/25 02:43:00;;;;;;;5.70;3.30;;;9.60;99.90;;;;;;4928082;29;20229;-55
2023/03/25 02:45:31;;;;;;;6.13;3.33;;;9.50;99.90;;;;;;4950677;29;20642;-56
2023/03/25 02:48:05;;;;;;;6.43;3.77;;;9.50;99.90;;;;;;4934601;29;20224;-56
2023/03/25 02:50:38;;;;;;;6.37;3.30;;;9.60;99.90;;;;;;4934350;29;20316;-57
2023/03/25 02:53:10;;;;;;;5.87;2.83;;;9.60;99.90;;;;;;4934686;29;20236;-57
2023/03/25 02:55:42;;;;;;;7.20;3.40;;;9.60;99.90;;;;;;4934469;29;20232;-56
2023/03/25 02:58:13;;;;;;;5.50;3.10;;;9.50;99.90;;;;;;4935700;29;20274;-56
2023/03/25 03:00:43;;;;;;;8.33;3.77;;;9.50;99.90;;;;;;4919389;29;20280;-56
2023/03/25 03:03:11;;;;;;;7.33;3.47;;;9.50;99.90;;;;;;4940753;29;20252;-56
2023/03/25 03:05:43;;;;;;;8.90;3.53;;;9.50;99.90;;;;;;4931887;29;20232;-56
2023/03/25 03:08:25;;;;;;;6.40;3.50;;;9.60;99.90;;;;;;4927995;29;20235;-56
2023/03/25 03:11:06;;;;;;;7.20;3.60;;;9.50;99.90;;;;;;4935769;29;20259;-56
2023/03/25 03:13:49;;;;;;;5.57;3.50;;;9.50;99.90;;;;;;4935782;29;20245;-56
2023/03/25 03:16:25;;;;;;;5.80;3.50;;;9.50;99.90;;;;;;4932706;29;20241;-56
2023/03/25 03:19:02;;;;;;;6.77;3.40;;;9.50;99.90;;;;;;4925470;29;20235;-55
2023/03/25 03:21:37;;;;;;;6.60;3.53;;;9.50;99.90;;;;;;4931378;29;20714;-57
2023/03/25 03:24:12;;;;;;;7.03;3.60;;;9.50;99.90;;;;;;4935712;29;20594;-56
2023/03/25 03:26:48;;;;;;;5.83;3.37;;;9.50;99.90;;;;;;4934981;29;20239;-56
2023/03/25 03:29:19;;;;;;;5.87;3.73;;;9.50;99.90;;;;;;4927382;29;20570;-56
2023/03/25 03:31:52;;;;;;;8.47;3.50;;;9.40;99.90;;;;;;4933034;29;20231;-56
2023/03/25 03:34:42;;;;;;;7.00;3.80;;;9.40;99.90;;;;;;4935392;29;20287;-57
2023/03/25 03:37:13;;;;;;;6.27;3.63;;;9.40;99.90;;;;;;4923137;29;20238;-57
2023/03/25 03:39:43;;;;;;;7.47;3.63;;;9.40;99.90;;;;;;4932369;29;20242;-57
2023/03/25 03:42:20;;;;;;;6.07;3.57;;;9.30;99.90;;;;;;4933682;29;20237;-56
2023/03/25 03:44:52;;;;;;;5.23;3.50;;;9.30;99.90;;;;;;4918178;29;20711;-56
2023/03/25 03:47:25;;;;;;;6.87;3.50;;;9.30;99.90;;;;;;4916587;29;20779;-56
2023/03/25 03:49:56;;;;;;;4.67;3.37;;;9.30;99.90;;;;;;4925804;29;20677;-54
2023/03/25 03:52:30;;;;;;;6.63;3.73;;;9.30;99.90;;;;;;4924219;29;20228;-55
2023/03/25 03:55:02;;;;;;;7.23;3.77;;;9.30;99.90;;;;;;4934948;29;20592;-56
2023/03/25 03:57:37;;;;;;;7.00;3.80;;;9.30;99.90;;;;;;4935242;29;20315;-57
2023/03/25 04:00:11;;;;;;;6.93;3.90;;;9.30;99.90;;;;;;4932732;29;20233;-57
2023/03/25 04:02:41;;;;;;;7.17;3.40;;;9.20;99.90;;;;;;4931326;29;20241;-57
2023/03/25 04:05:13;;;;;;;6.50;3.90;;;9.30;99.90;;;;;;4923318;29;20584;-57
2023/03/25 04:07:45;;;;;;;4.97;3.57;;;9.20;99.90;;;;;;4916308;29;20240;-57
2023/03/25 04:10:16;;;;;;;6.30;3.50;;;9.20;99.90;;;;;;4918327;29;20234;-56
2023/03/25 04:12:50;;;;;;;5.13;3.80;;;9.20;99.90;;;;;;4933647;29;20724;-57
2023/03/25 04:15:19;;;;;;;7.93;4.10;;;9.20;99.90;;;;;;4935356;29;20231;-56
2023/03/25 04:17:47;;;;;;;8.30;4.20;;;9.10;99.90;;;;;;4934663;29;20245;-56
2023/03/25 04:20:22;;;;;;;7.47;4.40;;;9.10;99.90;;;;;;4926926;29;20238;-57
2023/03/25 04:22:51;;;;;;;7.27;4.10;;;9.10;99.90;;;;;;4930511;29;20288;-57
2023/03/25 04:25:20;;;;;;;7.83;4.40;;;9.00;99.90;;;;;;4938890;29;20224;-56
2023/03/25 04:27:52;;;;;;;9.60;4.43;;;9.00;99.90;;;;;;4935693;29;20578;-57
2023/03/25 04:30:21;;;;;;;9.53;4.47;;;9.00;99.90;;;;;;4929451;29;20236;-56
2023/03/25 04:32:50;;;;;;;8.50;4.43;;;9.00;99.90;;;;;;4935407;29;20320;-55
2023/03/25 04:35:18;;;;;;;6.27;4.00;;;9.00;99.90;;;;;;4925438;29;20230;-56
2023/03/25 04:37:47;;;;;;;6.57;4.33;;;9.00;99.90;;;;;;4919229;29;20234;-57
2023/03/25 04:40:17;;;;;;;6.50;4.23;;;9.00;99.90;;;;;;4921187;29;20316;-56
2023/03/25 04:42:46;;;;;;;9.47;4.90;;;9.00;99.90;;;;;;4936992;29;20238;-57
2023/03/25 04:45:16;;;;;;;7.43;4.30;;;9.00;99.90;;;;;;4938226;29;20309;-56
2023/03/25 04:47:47;;;;;;;9.03;4.40;;;8.90;99.90;;;;;;4937900;29;20336;-57
2023/03/25 04:50:20;;;;;;;8.40;4.57;;;8.90;99.90;;;;;;4930096;29;20246;-57
2023/03/25 04:52:49;;;;;;;7.33;4.20;;;8.90;99.90;;;;;;4930209;29;20232;-57
2023/03/25 04:55:18;;;;;;;6.30;4.03;;;8.90;99.90;;;;;;4938110;29;20739;-57
2023/03/25 04:57:47;;;;;;;8.73;4.33;;;8.90;99.90;;;;;;4937860;29;20267;-56
2023/03/25 05:00:19;;;;;;;6.33;4.30;;;8.90;99.90;;;;;;4927675;29;20783;-57
2023/03/25 05:02:49;;;;;;;5.93;4.07;;;8.90;99.90;;;;;;4934370;29;20251;-56
2023/03/25 05:05:19;;;;;;;8.07;4.00;;;8.90;99.90;;;;;;4924993;29;20229;-56
2023/03/25 05:07:49;;;;;;;7.50;4.27;;;8.80;99.90;;;;;;4918790;29;20257;-56
2023/03/25 05:10:18;;;;;;;6.03;4.43;;;8.80;99.90;;;;;;4920134;29;20694;-56
2023/03/25 05:12:46;;;;;;;5.83;3.57;;;8.80;99.90;;;;;;4929757;29;20243;-57
2023/03/25 05:15:17;;;;;;;7.40;3.70;;;8.80;99.90;;;;;;4937972;29;20328;-57
2023/03/25 05:17:45;;;;;;;7.73;3.73;;;8.80;99.90;;;;;;4937690;29;20660;-57
2023/03/25 05:20:15;;;;;;;5.93;3.50;;;8.80;99.90;;;;;;4929775;29;20704;-56
2023/03/25 05:22:44;;;;;;;8.67;3.50;;;8.90;99.90;;;;;;4923966;29;20308;-57
2023/03/25 05:25:12;;;;;;;7.53;3.50;;;8.90;99.90;;;;;;4937802;29;20279;-57
2023/03/25 05:27:43;;;;;;;6.77;3.37;;;8.80;99.90;;;;;;4937556;29;20719;-57
2023/03/25 05:30:12;;;;;;;5.40;2.90;;;8.80;99.90;;;;;;4933050;29;20671;-56
2023/03/25 05:32:44;;;;;;;5.67;2.50;;;8.80;99.90;;;;;;4932259;29;20232;-57
2023/03/25 05:35:12;;;;;;;4.13;2.30;;;8.80;99.90;;;;;;4925140;29;20684;-57
2023/03/25 05:37:41;;;;;;;7.83;2.60;;;8.80;99.90;;;;;;4918177;29;20228;-56
2023/03/25 05:40:10;;;;;;;3.93;2.50;;;8.80;99.90;;;;;;4920860;29;20251;-57
2023/03/25 05:42:45;;;;;;;4.93;2.73;;;8.80;99.90;;;;;;4928393;29;20224;-57
2023/03/25 05:45:14;;;;;;;4.13;2.90;;;8.80;99.90;;;;;;4931811;29;20286;-57
2023/03/25 05:47:44;;;;;;;6.40;3.00;;;8.80;99.90;;;;;;4936538;29;20274;-57
2023/03/25 05:50:13;;;;;;;5.83;3.00;;;8.80;99.90;;;;;;4933365;29;20231;-57
2023/03/25 05:52:41;;;;;;;5.40;3.13;;;8.80;99.90;;;;;;4933096;29;20751;-57
2023/03/25 05:55:12;;;;;;;4.80;3.13;;;8.80;99.90;;;;;;4918265;29;20225;-56
2023/03/25 05:57:40;;;;;;;8.00;4.07;;;8.80;99.90;;;;;;4918069;29;20593;-57
2023/03/25 06:00:11;;;;;;;6.63;3.50;;;8.80;99.90;;;;;;4935132;29;20240;-57
2023/03/25 06:02:41;;;;;;;8.53;4.00;;;8.70;99.90;;;;;;4933134;29;20772;-56
2023/03/25 06:05:13;;;;;;;7.23;3.80;;;8.70;99.90;;;;;;4924864;29;20324;-56
2023/03/25 06:07:42;;;;;;;6.93;4.00;;;8.80;99.90;;;;;;4917952;29;20237;-57
2023/03/25 06:10:11;;;;;;;9.70;4.20;;;8.80;99.90;;;;;;4919623;29;20678;-56
2023/03/25 06:12:39;;;;;;;10.83;4.73;;;8.80;99.90;;;;;;4928464;29;20234;-57
2023/03/25 06:15:09;;;;;;;8.63;4.73;;;8.90;99.90;;;;;;4929001;29;20230;-57
2023/03/25 06:17:38;;;;;;;13.50;5.23;;;8.90;99.90;;;;;;4923591;29;20220;-57
2023/03/25 06:20:11;;;;;;;8.67;4.70;;;8.90;99.90;;;;;;4925457;29;20583;-57
2023/03/25 06:22:43;;;;;;;13.40;5.27;;;9.00;99.90;;;;;;4926161;29;20592;-56
2023/03/25 06:25:13;;;;;;;8.90;4.70;;;9.00;99.90;;;;;;4928179;29;20322;-55
2023/03/25 06:27:41;;;;;;;9.77;4.90;;;8.90;99.90;;;;;;4933720;29;20232;-56
2023/03/25 06:30:11;;;;;;;7.17;4.97;;;8.90;99.90;;;;;;4936165;29;20236;-56
2023/03/25 06:32:40;;;;;;;10.43;5.47;;;8.90;99.90;;;;;;4935079;29;20236;-56
2023/03/25 06:35:10;;;;;;;9.47;5.33;;;8.90;99.90;;;;;;4935607;29;20242;-56
2023/03/25 06:37:39;;;;;;;10.73;5.40;;;8.90;99.90;;;;;;4936082;29;20244;-56
2023/03/25 06:40:14;;;;;;;10.33;4.87;;;8.90;99.90;;;;;;4934786;29;20274;-57
2023/03/25 06:42:42;;;;;;;11.77;5.03;;;8.90;99.90;;;;;;4918854;29;20228;-56
2023/03/25 06:45:29;;;;;;;10.77;4.60;;;8.90;99.90;;;;;;4934948;29;20796;-56
2023/03/25 06:48:04;;;;;;;11.63;5.20;;;9.00;99.90;;;;;;4933508;29;20231;-56
2023/03/25 06:50:32;;;;;;;9.87;4.97;;;9.00;99.90;;;;;;4926095;29;20224;-57
2023/03/25 06:53:03;;;;;;;10.57;5.07;;;9.00;99.90;;;;;;4925094;29;20232;-55
2023/03/25 06:55:31;;;;;;;8.43;5.00;;;9.00;99.90;;;;;;4917119;29;20240;-56
2023/03/25 06:58:00;;;;;;;11.00;5.43;;;9.00;99.90;;;;;;4916842;29;20240;-56
2023/03/25 07:00:28;;;;;;;9.97;5.30;;;9.00;99.90;;;;;;4921006;29;20580;-56
2023/03/25 07:02:57;;;;;;;10.23;5.33;;;9.00;99.90;;;;;;4932494;29;20708;-57
2023/03/25 07:05:25;;;;;;;9.33;4.80;;;9.20;99.90;;;;;;4921859;29;20329;-56
2023/03/25 07:07:53;;;;;;;10.60;5.03;;;9.10;99.90;;;;;;4917044;29;20769;-57
2023/03/25 07:10:23;;;;;;;8.80;4.37;;;9.10;99.90;;;;;;4920053;29;20234;-56
2023/03/25 07:12:51;;;;;;;8.03;4.23;;;9.10;99.90;;;;;;4927812;29;20317;-57
2023/03/25 07:15:19;;;;;;;10.83;4.53;;;9.10;99.90;;;;;;4923834;29;20232;-57
2023/03/25 07:17:48;;;;;;;9.93;4.43;;;9.10;99.90;;;;;;4921604;29;20559;-57
2023/03/25 07:20:16;;;;;;;11.27;4.20;;;9.20;99.90;;;;;;4924562;29;20795;-56
2023/03/25 07:22:45;;;;;;;9.40;4.57;;;9.20;99.90;;;;;;4919618;29;20803;-57
2023/03/25 07:25:13;;;;;;;13.47;4.73;;;9.10;99.90;;;;;;4935578;29;20238;-56
2023/03/25 07:27:42;;;;;;;10.87;4.60;;;9.10;99.90;;;;;;4930307;29;20230;-55
2023/03/25 07:30:15;;;;;;;11.17;4.40;;;9.10;99.90;;;;;;4942488;29;20223;-57
2023/03/25 07:32:44;;;;;;;9.70;4.53;;;9.10;99.90;;;;;;4935341;29;20890;-57
2023/03/25 07:35:12;;;;;;;8.50;4.17;;;9.20;99.90;;;;;;4923169;29;20627;-56
2023/03/25 07:37:40;;;;;;;7.37;3.83;;;9.20;99.90;;;;;;4927850;29;20225;-56
2023/03/25 07:40:09;;;;;;;8.63;4.20;;;9.20;99.90;;;;;;4935175;29;20241;-57
2023/03/25 07:42:37;;;;;;;8.57;4.20;;;9.20;99.90;;;;;;4933229;29;20228;-57
2023/03/25 07:45:24;;;;;;;8.57;3.93;;;9.20;99.90;;;;;;4922796;29;20233;-56
2023/03/25 07:47:53;;;;;;;11.93;4.23;;;9.20;99.90;;;;;;4930982;29;20245;-57
2023/03/25 07:50:23;;;;;;;7.30;4.30;;;9.20;99.90;;;;;;4926473;29;20224;-57
2023/03/25 07:52:54;;;;;;;8.53;4.63;;;9.20;99.90;;;;;;4927547;29;20738;-55
2023/03/25 07:55:22;;;;;;;9.67;4.50;;;9.30;99.90;;;;;;4935566;29;20313;-56
2023/03/25 07:57:50;;;;;;;9.20;4.73;;;9.40;99.90;;;;;;4938608;29;20230;-56
2023/03/25 08:00:19;;;;;;;11.33;4.80;;;9.40;99.90;;;;;;4938771;29;20239;-57
2023/03/25 08:02:49;;;;;;;12.13;4.83;;;9.40;99.90;;;;;;4932705;29;20256;-56
2023/03/25 08:05:20;;;;;;;9.53;4.77;;;9.30;99.90;;;;;;4928123;29;20233;-57
2023/03/25 08:07:49;;;;;;;8.00;4.23;;;9.30;99.90;;;;;;4929762;29;20235;-56
2023/03/25 08:10:18;;;;;;;7.43;4.30;;;9.40;99.90;;;;;;4938341;29;20224;-57
2023/03/25 08:12:46;;;;;;;7.87;4.53;;;9.50;99.90;;;;;;4929522;29;20238;-57
2023/03/25 08:15:15;;;;;;;4.67;3.73;;;9.50;99.90;;;;;;4935849;29;20243;-57
2023/03/25 08:17:44;;;;;;;6.87;4.50;;;9.50;99.90;;;;;;4920640;29;20229;-55
2023/03/25 08:20:13;;;;;;;10.60;4.77;;;9.50;99.90;;;;;;4930621;29;20251;-56
2023/03/25 08:22:44;;;;;;;7.50;4.70;;;9.40;99.90;;;;;;4930266;29;20229;-57
2023/03/25 08:25:13;;;;;;;9.40;4.93;;;9.40;99.90;;;;;;4921798;29;20228;-57
2023/03/25 08:27:41;;;;;;;8.73;4.90;;;9.40;99.90;;;;;;4934637;29;20244;-56
2023/03/25 08:30:10;;;;;;;11.70;5.07;;;9.50;99.90;;;;;;4935252;29;20678;-56
2023/03/25 08:32:39;;;;;;;7.73;4.47;;;9.40;99.90;;;;;;4925094;29;20578;-56
2023/03/25 08:35:08;;;;;;;9.77;4.83;;;9.40;99.90;;;;;;4931293;29;20235;-56
2023/03/25 08:37:37;;;;;;;9.40;4.30;;;9.40;99.90;;;;;;4937578;29;20232;-56
2023/03/25 08:40:07;;;;;;;8.40;3.23;;;9.30;99.90;;;;;;4929931;29;20232;-57
2023/03/25 08:42:37;;;;;;;6.70;3.07;;;9.30;99.90;;;;;;4931443;29;20223;-57
2023/03/25 08:45:06;;;;;;;9.30;3.20;;;9.20;99.90;;;;;;4924460;29;20240;-57
2023/03/25 08:47:34;;;;;;;6.20;2.20;;;9.10;99.90;;;;;;4926681;29;20236;-56
2023/03/25 08:50:03;;;;;;;4.77;1.70;;;9.00;99.90;;;;;;4931436;29;20584;-57
2023/03/25 08:52:31;;;;;;;4.20;1.37;;;9.00;99.90;;;;;;4931829;29;20228;-57
2023/03/25 08:55:00;;;;;;;7.70;1.80;;;9.00;99.90;;;;;;4919754;29;20229;-56
2023/03/25 08:57:28;;;;;;;4.53;1.50;;;9.00;99.90;;;;;;4919229;29;20229;-57
2023/03/25 08:59:56;;;;;;;6.17;1.53;;;9.10;99.90;;;;;;4919219;29;20685;-56
2023/03/25 09:02:25;;;;;;;4.57;1.50;;;9.10;99.90;;;;;;4935559;29;20240;-55
2023/03/25 09:04:53;;;;;;;3.50;1.40;;;9.10;99.90;;;;;;4927847;29;20233;-57
2023/03/25 09:07:22;;;;;;;5.70;1.60;;;9.10;99.90;;;;;;4918857;29;20233;-57
2023/03/25 09:09:50;;;;;;;5.13;1.60;;;9.00;99.90;;;;;;4918769;29;20233;-57
2023/03/25 09:12:19;;;;;;;5.70;1.60;;;9.00;99.90;;;;;;4930971;29;20566;-57
2023/03/25 09:14:47;;;;;;;6.53;2.10;;;9.00;99.90;;;;;;4931034;29;20240;-56
2023/03/25 09:17:15;;;;;;;5.10;1.60;;;9.00;99.90;;;;;;4918881;29;20233;-56
2023/03/25 09:19:43;;;;;;;4.70;1.90;;;9.00;99.90;;;;;;4927103;29;20237;-56
2023/03/25 09:22:11;;;;;;;6.27;2.00;;;9.00;99.90;;;;;;4933046;29;20232;-56
2023/03/25 09:24:40;;;;;;;4.47;1.80;;;9.00;99.90;;;;;;4921318;29;20229;-57
2023/03/25 09:27:08;;;;;;;4.93;1.83;;;9.10;99.90;;;;;;4936932;29;20232;-56
2023/03/25 09:29:38;;;;;;;4.30;1.73;;;9.10;99.90;;;;;;4937296;29;20235;-56
2023/03/25 09:32:06;;;;;;;6.70;1.70;;;9.10;99.90;;;;;;4936896;29;20231;-56
2023/03/25 09:34:34;;;;;;;6.10;1.97;;;9.10;99.90;;;;;;4932622;29;20671;-56
2023/03/25 09:37:03;;;;;;;5.30;1.60;;;9.10;99.90;;;;;;4936922;29;20298;-57
2023/03/25 09:39:31;;;;;;;3.93;1.57;;;9.20;99.90;;;;;;4937182;29;20687;-56
2023/03/25 09:42:18;;;;;;;3.90;1.47;;;9.30;99.90;;;;;;4934169;29;20696;-57
2023/03/25 09:44:55;;;;;;;4.80;1.60;;;9.30;99.90;;;;;;4934696;29;20232;-56
2023/03/25 09:47:25;;;;;;;4.63;1.30;;;9.40;99.90;;;;;;4937435;29;20595;-57
2023/03/25 09:49:58;;;;;;;2.40;1.33;;;9.60;99.90;;;;;;4929271;29;20269;-56
2023/03/25 09:52:35;;;;;;;4.50;1.63;;;9.80;99.90;;;;;;4930699;29;20395;-55
2023/03/25 09:55:08;;;;;;;3.87;1.70;;;9.80;99.90;;;;;;4925729;29;20231;-56
2023/03/25 09:57:44;;;;;;;5.27;1.93;;;10.20;99.90;;;;;;4930134;29;20243;-57
2023/03/25 10:00:18;;;;;;;7.70;2.17;;;10.60;99.90;;;;;;4936642;29;20591;-55
2023/03/25 10:02:53;;;;;;;8.27;2.40;;;11.10;99.90;;;;;;4933854;29;20249;-56
2023/03/25 10:05:46;;;;;;;9.40;2.20;;;11.40;99.90;;;;;;4925779;29;20290;-56
2023/03/25 10:08:25;;;;;;;11.50;2.87;;;11.40;99.90;;;;;;4930217;29;20239;-56
2023/03/25 10:11:02;;;;;;;7.83;2.40;;;11.30;99.90;;;;;;4936951;29;20243;-56
2023/03/25 10:13:40;;;;;;;10.40;2.40;;;11.50;99.90;;;;;;4930008;29;20696;-56
2023/03/25 10:16:22;;;;;;;6.30;2.90;;;12.20;99.90;;;;;;4934857;29;20261;-56
2023/03/25 10:19:00;;;;;;;5.83;2.00;;;12.50;99.90;;;;;;4934613;29;20247;-56
2023/03/25 10:21:35;;;;;;;6.50;2.30;;;12.30;99.90;;;;;;4926499;29;20230;-56
2023/03/25 10:24:13;;;;;;;10.50;2.63;;;12.10;99.90;;;;;;4932082;29;20252;-56
2023/03/25 10:26:46;;;;;;;7.77;2.13;;;11.40;99.90;;;;;;4930855;29;20230;-56
2023/03/25 10:29:19;;;;;;;9.43;2.27;;;11.20;99.90;;;;;;4932031;29;20237;-56
2023/03/25 10:31:52;;;;;;;8.70;2.60;;;11.00;99.90;;;;;;4930827;29;20229;-56
2023/03/25 10:34:31;;;;;;;8.40;2.37;;;10.80;99.90;;;;;;4931102;29;20229;-56
2023/03/25 10:37:04;;;;;;;7.63;2.37;;;10.50;99.90;;;;;;4931934;29;20225;-56
2023/03/25 10:39:37;;;;;;;6.47;2.20;;;10.30;99.90;;;;;;4931871;29;20229;-56
2023/03/25 10:42:19;;;;;;;6.50;2.00;;;10.00;99.90;;;;;;4931879;29;20245;-56
2023/03/25 10:44:48;;;;;;;7.93;2.03;;;9.80;99.90;;;;;;4931069;29;20240;-56
2023/03/25 10:47:20;;;;;;;5.87;2.23;;;9.80;99.90;;;;;;4931678;29;20282;-56
2023/03/25 10:49:51;;;;;;;3.90;1.90;;;9.70;99.90;;;;;;4931614;29;20399;-56
2023/03/25 10:52:19;;;;;;;5.47;2.27;;;9.70;99.90;;;;;;4931557;29;20308;-57
2023/03/25 10:54:51;;;;;;;6.13;2.20;;;9.50;99.90;;;;;;4931332;29;20224;-56
2023/03/25 10:57:23;;;;;;;3.63;1.70;;;9.50;99.90;;;;;;4932034;29;20237;-56
2023/03/25 11:00:00;;;;;;;7.17;2.13;;;9.40;99.90;;;;;;4932022;29;20567;-56
2023/03/25 11:02:33;;;;;;;4.70;1.93;;;9.40;99.90;;;;;;4930714;29;20252;-56
2023/03/25 11:05:03;;;;;;;5.57;1.90;;;9.40;99.90;;;;;;4931320;29;20604;-56
2023/03/25 11:07:35;;;;;;;3.60;1.77;;;9.50;99.90;;;;;;4931189;29;20704;-56
2023/03/25 11:10:15;;;;;;;4.17;1.43;;;9.60;99.90;;;;;;4931375;29;20236;-56
2023/03/25 11:12:46;;;;;;;4.20;1.53;;;9.80;99.90;;;;;;4930104;29;20249;-56
2023/03/25 11:15:18;;;;;;;3.57;1.50;;;10.00;99.90;;;;;;4931266;29;20229;-56
2023/03/25 11:17:55;;;;;;;5.17;1.30;;;10.20;99.90;;;;;;4929300;29;20569;-56
2023/03/25 11:20:28;;;;;;;4.23;1.40;;;10.40;99.90;;;;;;4928879;29;20224;-56
2023/03/25 11:23:05;;;;;;;2.53;1.03;;;10.70;99.90;;;;;;4930223;29;20224;-56
2023/03/25 11:25:38;;;;;;;2.47;1.20;;;11.10;99.90;;;;;;4931219;29;20230;-56
2023/03/25 11:28:13;;;;;;;2.77;1.20;;;11.50;99.90;;;;;;4931622;29;20701;-57
2023/03/25 11:31:06;;;;;;;5.93;1.30;;;11.60;99.90;;;;;;4929843;29;20243;-57
2023/03/25 11:33:36;;;;;;;3.23;1.63;;;11.90;99.90;;;;;;4930982;29;20685;-56
2023/03/25 11:36:26;;;;;;;5.10;1.50;;;11.90;99.90;;;;;;4931358;29;20231;-56
2023/03/25 11:39:00;;;;;;;2.90;1.50;;;12.00;99.90;;;;;;4931266;29;20241;-56
2023/03/25 11:41:33;;;;;;;5.20;1.60;;;12.00;99.90;;;;;;4931141;29;20234;-56
2023/03/25 11:44:03;;;;;;;5.20;1.50;;;12.10;99.90;;;;;;4929961;29;20231;-56
2023/03/25 11:46:32;;;;;;;5.67;1.60;;;12.00;99.90;;;;;;4930796;29;20233;-56
2023/03/25 11:49:10;;;;;;;6.57;1.80;;;12.10;99.90;;;;;;4931017;29;20721;-57
2023/03/25 11:51:39;;;;;;;4.10;1.70;;;12.20;99.90;;;;;;4930504;29;20227;-56
2023/03/25 11:54:11;;;;;;;5.50;1.80;;;12.20;99.90;;;;;;4930837;29;20231;-56
2023/03/25 11:56:41;;;;;;;4.33;1.30;;;12.20;99.90;;;;;;4930814;29;20432;-56
2023/03/25 11:59:23;;;;;;;5.77;1.73;;;12.10;99.90;;;;;;4930668;29;20245;-57
2023/03/25 12:02:00;;;;;;;5.63;1.60;;;12.20;99.90;;;;;;4929678;29;20738;-56
2023/03/25 12:04:31;;;;;;;9.43;1.63;;;12.40;99.90;;;;;;4929729;29;20239;-56
2023/03/25 12:07:01;;;;;;;4.50;1.40;;;12.50;99.90;;;;;;4930748;29;20819;-56
2023/03/25 12:09:31;;;;;;;6.47;1.80;;;12.30;99.90;;;;;;4930248;29;20234;-55
2023/03/25 12:12:26;;;;;;;7.87;1.97;;;12.20;99.90;;;;;;4930673;29;20980;-56
2023/03/25 12:15:06;;;;;;;5.00;1.90;;;11.90;99.90;;;;;;4930237;29;20237;-56
2023/03/25 12:17:49;;;;;;;7.03;1.80;;;11.70;99.90;;;;;;4930526;29;20242;-56
2023/03/25 12:20:26;;;;;;;6.47;1.80;;;11.50;99.90;;;;;;4928901;29;20239;-56
2023/03/25 12:23:02;;;;;;;3.73;1.40;;;11.40;99.90;;;;;;4929912;29;20246;-56
2023/03/25 12:25:41;;;;;;;4.70;1.50;;;11.60;99.90;;;;;;4929709;29;20235;-56
2023/03/25 12:28:28;;;;;;;2.80;1.10;;;11.70;99.90;;;;;;4930554;29;20765;-57
2023/03/25 12:31:07;;;;;;;4.17;1.00;;;11.90;99.90;;;;;;4929705;29;20239;-56
2023/03/25 12:33:48;;;;;;;3.33;1.00;;;12.30;99.90;;;;;;4930817;29;20762;-56
2023/03/25 12:36:37;;;;;;;2.63;0.80;;;12.40;99.90;;;;;;4930151;29;20662;-56
2023/03/25 12:39:29;;;;;;;3.03;1.10;;;12.20;99.90;;;;;;4930734;29;20731;-56
2023/03/25 12:42:23;;;;;;;3.50;1.50;;;12.10;99.90;;;;;;4930525;29;20229;-56
2023/03/25 12:45:02;;;;;;;2.40;1.00;;;12.00;99.90;;;;;;4933924;29;20242;-56
2023/03/25 12:47:35;;;;;;;5.57;1.40;;;11.50;99.90;;;;;;4933423;29;20313;-56
2023/03/25 12:50:19;;;;;;;3.87;1.57;;;11.20;99.90;;;;;;4933327;29;20239;-56
2023/03/25 12:52:56;;;;;;;3.97;1.30;;;11.00;99.90;;;;;;4933575;29;20737;-56
2023/03/25 12:55:50;;;;;;;6.70;1.47;;;10.70;99.90;;;;;;4933789;29;20237;-56
2023/03/25 12:58:38;;;;;;;4.80;1.70;;;10.60;99.90;;;;;;4933968;29;20246;-56
2023/03/25 13:01:12;;;;;;;4.67;1.40;;;10.60;99.90;;;;;;4929847;29;20714;-56
2023/03/25 13:04:11;;;;;;;3.30;1.10;;;10.70;99.90;;;;;;4931395;29;20237;-56
2023/03/25 13:06:43;;;;;;;3.07;1.20;;;10.70;99.90;;;;;;4933253;29;20227;-56
2023/03/25 13:09:18;;;;;;;3.07;1.30;;;10.80;99.90;;;;;;4932930;29;20235;-54
2023/03/25 13:11:50;;;;;;;4.13;1.73;;;10.90;99.90;;;;;;4932632;29;20686;-57
2023/03/25 13:14:23;;;;;;;2.97;1.23;;;11.10;99.90;;;;;;4933229;29;20227;-56
2023/03/25 13:16:55;;;;;;;2.87;1.10;;;11.20;99.90;;;;;;4934056;29;20612;-56
2023/03/25 13:19:26;;;;;;;4.43;1.60;;;11.30;99.90;;;;;;4933285;29;20231;-57
2023/03/25 13:21:58;;;;;;;2.83;1.50;;;11.20;99.90;;;;;;4933200;29;20701;-57